sensor_id;sensor_type;location;lat;lon;timestamp;P1;durP1;ratioP1;P2;durP2;ratioP2
4112;SDS011;2070;51.042;7.056;2023-03-04T00:01:42;74.13;;;25.37;;
4112;SDS011;2070;51.042;7.056;2023-03-04T00:04:07;77.87;;;26.57;;
4112;SDS011;2070;51.042;7.056;2023-03-04T00:06:33;86.17;;;27.23;;
4112;SDS011;2070;51.042;7.056;2023-03-04T00:08:58;68.67;;;27.23;;
4112;SDS011;2070;51.042;7.056;2023-03-04T00:11:23;72.77;;;27.27;;
4112;SDS011;2070;51.042;7.056;2023-03-04T00:13:49;80.90;;;24.77;;
4112;SDS011;2070;51.042;7.056;2023-03-04T00:16:14;70.67;;;24.80;;
4112;SDS011;2070;51.042;7.056;2023-03-04T00:18:39;88.23;;;29.00;;
4112;SDS011;2070;51.042;7.056;2023-03-04T00:21:05;76.57;;;25.77;;
4112;SDS011;2070;51.042;7.056;2023-03-04T00:23:30;74.73;;;26.90;;
4112;SDS011;2070;51.042;7.056;2023-03-04T00:25:55;80.60;;;27.73;;
4112;SDS011;2070;51.042;7.056;2023-03-04T00:28:20;68.03;;;24.87;;
4112;SDS011;2070;51.042;7.056;2023-03-04T00:30:46;81.43;;;27.37;;
4112;SDS011;2070;51.042;7.056;2023-03-04T00:33:11;77.53;;;27.40;;
4112;SDS011;2070;51.042;7.056;2023-03-04T00:35:36;85.37;;;25.43;;
4112;SDS011;2070;51.042;7.056;2023-03-04T00:38:01;70.90;;;26.80;;
4112;SDS011;2070;51.042;7.056;2023-03-04T00:40:27;73.30;;;23.80;;
4112;SDS011;2070;51.042;7.056;2023-03-04T00:42:52;77.10;;;25.80;;
4112;SDS011;2070;51.042;7.056;2023-03-04T00:45:17;66.53;;;25.00;;
4112;SDS011;2070;51.042;7.056;2023-03-04T00:47:42;89.30;;;26.90;;
4112;SDS011;2070;51.042;7.056;2023-03-04T00:50:08;73.13;;;24.40;;
4112;SDS011;2070;51.042;7.056;2023-03-04T00:52:33;77.40;;;26.60;;
4112;SDS011;2070;51.042;7.056;2023-03-04T00:54:58;97.87;;;29.13;;
4112;SDS011;2070;51.042;7.056;2023-03-04T00:57:23;92.73;;;27.10;;
4112;SDS011;2070;51.042;7.056;2023-03-04T00:59:49;65.90;;;24.80;;
4112;SDS011;2070;51.042;7.056;2023-03-04T01:02:14;62.00;;;22.03;;
4112;SDS011;2070;51.042;7.056;2023-03-04T01:04:39;70.33;;;24.63;;
4112;SDS011;2070;51.042;7.056;2023-03-04T01:07:05;84.33;;;28.10;;
4112;SDS011;2070;51.042;7.056;2023-03-04T01:09:31;87.87;;;29.33;;
4112;SDS011;2070;51.042;7.056;2023-03-04T01:11:56;77.70;;;27.90;;
4112;SDS011;2070;51.042;7.056;2023-03-04T01:14:21;85.30;;;27.43;;
4112;SDS011;2070;51.042;7.056;2023-03-04T01:16:47;84.60;;;27.43;;
4112;SDS011;2070;51.042;7.056;2023-03-04T01:19:12;85.33;;;29.73;;
4112;SDS011;2070;51.042;7.056;2023-03-04T01:21:37;85.40;;;28.77;;
4112;SDS011;2070;51.042;7.056;2023-03-04T01:24:02;68.33;;;28.53;;
4112;SDS011;2070;51.042;7.056;2023-03-04T01:26:28;79.63;;;28.23;;
4112;SDS011;2070;51.042;7.056;2023-03-04T01:28:53;77.10;;;26.07;;
4112;SDS011;2070;51.042;7.056;2023-03-04T01:31:18;85.60;;;26.73;;
4112;SDS011;2070;51.042;7.056;2023-03-04T01:33:43;84.40;;;28.40;;
4112;SDS011;2070;51.042;7.056;2023-03-04T01:36:09;111.77;;;31.47;;
4112;SDS011;2070;51.042;7.056;2023-03-04T01:38:34;84.80;;;31.80;;
4112;SDS011;2070;51.042;7.056;2023-03-04T01:40:59;69.70;;;25.07;;
4112;SDS011;2070;51.042;7.056;2023-03-04T01:43:26;87.40;;;28.40;;
4112;SDS011;2070;51.042;7.056;2023-03-04T01:45:52;108.07;;;33.57;;
4112;SDS011;2070;51.042;7.056;2023-03-04T01:48:18;85.60;;;28.17;;
4112;SDS011;2070;51.042;7.056;2023-03-04T01:50:46;87.10;;;30.40;;
4112;SDS011;2070;51.042;7.056;2023-03-04T01:53:24;101.20;;;32.07;;
4112;SDS011;2070;51.042;7.056;2023-03-04T01:55:51;94.33;;;29.67;;
4112;SDS011;2070;51.042;7.056;2023-03-04T01:58:16;98.13;;;30.90;;
4112;SDS011;2070;51.042;7.056;2023-03-04T02:00:41;91.63;;;30.40;;
4112;SDS011;2070;51.042;7.056;2023-03-04T02:03:10;85.70;;;31.37;;
4112;SDS011;2070;51.042;7.056;2023-03-04T02:05:37;93.27;;;27.27;;
4112;SDS011;2070;51.042;7.056;2023-03-04T02:08:03;93.70;;;29.57;;
4112;SDS011;2070;51.042;7.056;2023-03-04T02:10:29;72.00;;;26.03;;
4112;SDS011;2070;51.042;7.056;2023-03-04T02:12:54;81.37;;;29.43;;
4112;SDS011;2070;51.042;7.056;2023-03-04T02:15:19;98.30;;;32.63;;
4112;SDS011;2070;51.042;7.056;2023-03-04T02:17:44;95.77;;;28.50;;
4112;SDS011;2070;51.042;7.056;2023-03-04T02:20:12;90.00;;;30.83;;
4112;SDS011;2070;51.042;7.056;2023-03-04T02:22:42;98.27;;;29.87;;
4112;SDS011;2070;51.042;7.056;2023-03-04T02:25:10;90.03;;;28.27;;
4112;SDS011;2070;51.042;7.056;2023-03-04T02:27:36;92.10;;;30.70;;
4112;SDS011;2070;51.042;7.056;2023-03-04T02:30:02;96.60;;;30.50;;
4112;SDS011;2070;51.042;7.056;2023-03-04T02:32:27;113.70;;;31.00;;
4112;SDS011;2070;51.042;7.056;2023-03-04T02:34:52;87.03;;;30.20;;
4112;SDS011;2070;51.042;7.056;2023-03-04T02:37:18;97.90;;;30.67;;
4112;SDS011;2070;51.042;7.056;2023-03-04T02:39:44;121.07;;;36.43;;
4112;SDS011;2070;51.042;7.056;2023-03-04T02:42:09;105.57;;;32.80;;
4112;SDS011;2070;51.042;7.056;2023-03-04T02:44:36;83.20;;;29.70;;
4112;SDS011;2070;51.042;7.056;2023-03-04T02:47:02;112.13;;;33.37;;
4112;SDS011;2070;51.042;7.056;2023-03-04T02:49:28;99.40;;;32.30;;
4112;SDS011;2070;51.042;7.056;2023-03-04T02:52:00;86.43;;;32.30;;
4112;SDS011;2070;51.042;7.056;2023-03-04T02:54:26;80.33;;;27.43;;
4112;SDS011;2070;51.042;7.056;2023-03-04T02:56:52;112.00;;;36.77;;
4112;SDS011;2070;51.042;7.056;2023-03-04T02:59:18;90.47;;;29.07;;
4112;SDS011;2070;51.042;7.056;2023-03-04T03:01:44;97.97;;;29.57;;
4112;SDS011;2070;51.042;7.056;2023-03-04T03:04:09;90.73;;;28.90;;
4112;SDS011;2070;51.042;7.056;2023-03-04T03:06:35;81.30;;;27.87;;
4112;SDS011;2070;51.042;7.056;2023-03-04T03:09:00;89.93;;;29.50;;
4112;SDS011;2070;51.042;7.056;2023-03-04T03:11:26;89.70;;;30.63;;
4112;SDS011;2070;51.042;7.056;2023-03-04T03:13:51;101.83;;;33.20;;
4112;SDS011;2070;51.042;7.056;2023-03-04T03:16:16;103.60;;;33.80;;
4112;SDS011;2070;51.042;7.056;2023-03-04T03:18:41;97.50;;;28.40;;
4112;SDS011;2070;51.042;7.056;2023-03-04T03:21:07;111.17;;;28.47;;
4112;SDS011;2070;51.042;7.056;2023-03-04T03:23:32;108.33;;;32.03;;
4112;SDS011;2070;51.042;7.056;2023-03-04T03:25:58;100.67;;;31.37;;
4112;SDS011;2070;51.042;7.056;2023-03-04T03:28:23;93.90;;;31.13;;
4112;SDS011;2070;51.042;7.056;2023-03-04T03:30:48;101.13;;;31.53;;
4112;SDS011;2070;51.042;7.056;2023-03-04T03:33:13;94.47;;;32.53;;
4112;SDS011;2070;51.042;7.056;2023-03-04T03:35:38;96.60;;;30.57;;
4112;SDS011;2070;51.042;7.056;2023-03-04T03:38:04;111.40;;;33.40;;
4112;SDS011;2070;51.042;7.056;2023-03-04T03:40:29;99.13;;;30.90;;
4112;SDS011;2070;51.042;7.056;2023-03-04T03:42:54;95.03;;;29.90;;
4112;SDS011;2070;51.042;7.056;2023-03-04T03:45:19;97.17;;;29.30;;
4112;SDS011;2070;51.042;7.056;2023-03-04T03:47:45;108.80;;;32.03;;
4112;SDS011;2070;51.042;7.056;2023-03-04T03:50:10;90.93;;;30.23;;
4112;SDS011;2070;51.042;7.056;2023-03-04T03:52:35;110.37;;;30.47;;
4112;SDS011;2070;51.042;7.056;2023-03-04T03:55:00;93.70;;;31.20;;
4112;SDS011;2070;51.042;7.056;2023-03-04T03:57:26;91.87;;;30.47;;
4112;SDS011;2070;51.042;7.056;2023-03-04T03:59:51;97.83;;;30.93;;
4112;SDS011;2070;51.042;7.056;2023-03-04T04:02:16;77.87;;;28.50;;
4112;SDS011;2070;51.042;7.056;2023-03-04T04:04:42;107.33;;;34.30;;
4112;SDS011;2070;51.042;7.056;2023-03-04T04:07:07;90.40;;;30.97;;
4112;SDS011;2070;51.042;7.056;2023-03-04T04:09:32;92.43;;;30.40;;
4112;SDS011;2070;51.042;7.056;2023-03-04T04:11:57;99.00;;;31.50;;
4112;SDS011;2070;51.042;7.056;2023-03-04T04:14:22;87.00;;;28.30;;
4112;SDS011;2070;51.042;7.056;2023-03-04T04:16:48;92.43;;;27.50;;
4112;SDS011;2070;51.042;7.056;2023-03-04T04:19:22;111.63;;;31.73;;
4112;SDS011;2070;51.042;7.056;2023-03-04T04:21:47;96.93;;;29.77;;
4112;SDS011;2070;51.042;7.056;2023-03-04T04:24:12;92.80;;;31.20;;
4112;SDS011;2070;51.042;7.056;2023-03-04T04:26:37;100.57;;;30.50;;
4112;SDS011;2070;51.042;7.056;2023-03-04T04:29:02;84.17;;;31.17;;
4112;SDS011;2070;51.042;7.056;2023-03-04T04:31:28;107.33;;;31.90;;
4112;SDS011;2070;51.042;7.056;2023-03-04T04:33:53;98.53;;;28.33;;
4112;SDS011;2070;51.042;7.056;2023-03-04T04:36:18;105.27;;;31.20;;
4112;SDS011;2070;51.042;7.056;2023-03-04T04:38:44;100.13;;;30.87;;
4112;SDS011;2070;51.042;7.056;2023-03-04T04:41:20;90.13;;;30.07;;
4112;SDS011;2070;51.042;7.056;2023-03-04T04:43:46;83.37;;;28.03;;
4112;SDS011;2070;51.042;7.056;2023-03-04T04:46:11;114.53;;;30.77;;
4112;SDS011;2070;51.042;7.056;2023-03-04T04:48:36;85.20;;;29.27;;
4112;SDS011;2070;51.042;7.056;2023-03-04T04:51:01;92.70;;;29.30;;
4112;SDS011;2070;51.042;7.056;2023-03-04T04:53:27;101.37;;;28.57;;
4112;SDS011;2070;51.042;7.056;2023-03-04T04:55:52;87.53;;;28.30;;
4112;SDS011;2070;51.042;7.056;2023-03-04T04:58:17;95.10;;;31.97;;
4112;SDS011;2070;51.042;7.056;2023-03-04T05:00:42;81.93;;;27.33;;
4112;SDS011;2070;51.042;7.056;2023-03-04T05:03:07;83.90;;;28.43;;
4112;SDS011;2070;51.042;7.056;2023-03-04T05:05:33;91.83;;;29.90;;
4112;SDS011;2070;51.042;7.056;2023-03-04T05:07:58;83.20;;;28.67;;
4112;SDS011;2070;51.042;7.056;2023-03-04T05:10:23;110.13;;;28.40;;
4112;SDS011;2070;51.042;7.056;2023-03-04T05:12:48;93.67;;;27.57;;
4112;SDS011;2070;51.042;7.056;2023-03-04T05:15:14;86.70;;;26.87;;
4112;SDS011;2070;51.042;7.056;2023-03-04T05:17:39;79.17;;;29.07;;
4112;SDS011;2070;51.042;7.056;2023-03-04T05:20:04;89.63;;;29.73;;
4112;SDS011;2070;51.042;7.056;2023-03-04T05:22:31;88.33;;;26.40;;
4112;SDS011;2070;51.042;7.056;2023-03-04T05:24:56;94.67;;;25.23;;
4112;SDS011;2070;51.042;7.056;2023-03-04T05:27:21;93.77;;;28.20;;
4112;SDS011;2070;51.042;7.056;2023-03-04T05:29:46;80.43;;;27.20;;
4112;SDS011;2070;51.042;7.056;2023-03-04T05:32:11;87.07;;;24.60;;
4112;SDS011;2070;51.042;7.056;2023-03-04T05:34:37;60.47;;;21.80;;
4112;SDS011;2070;51.042;7.056;2023-03-04T05:37:02;70.80;;;26.10;;
4112;SDS011;2070;51.042;7.056;2023-03-04T05:39:27;87.23;;;27.17;;
4112;SDS011;2070;51.042;7.056;2023-03-04T05:41:52;87.93;;;25.80;;
4112;SDS011;2070;51.042;7.056;2023-03-04T05:44:17;81.47;;;25.80;;
4112;SDS011;2070;51.042;7.056;2023-03-04T05:46:43;79.60;;;27.63;;
4112;SDS011;2070;51.042;7.056;2023-03-04T05:49:08;81.47;;;25.90;;
4112;SDS011;2070;51.042;7.056;2023-03-04T05:51:33;73.40;;;25.30;;
4112;SDS011;2070;51.042;7.056;2023-03-04T05:53:58;78.03;;;26.77;;
4112;SDS011;2070;51.042;7.056;2023-03-04T05:56:23;90.67;;;28.93;;
4112;SDS011;2070;51.042;7.056;2023-03-04T05:58:49;74.37;;;25.87;;
4112;SDS011;2070;51.042;7.056;2023-03-04T06:01:14;60.47;;;23.37;;
4112;SDS011;2070;51.042;7.056;2023-03-04T06:03:40;77.90;;;26.67;;
4112;SDS011;2070;51.042;7.056;2023-03-04T06:06:07;61.80;;;23.00;;
4112;SDS011;2070;51.042;7.056;2023-03-04T06:08:32;72.47;;;23.97;;
4112;SDS011;2070;51.042;7.056;2023-03-04T06:10:57;69.93;;;24.77;;
4112;SDS011;2070;51.042;7.056;2023-03-04T06:13:23;78.13;;;24.20;;
4112;SDS011;2070;51.042;7.056;2023-03-04T06:15:52;90.00;;;24.33;;
4112;SDS011;2070;51.042;7.056;2023-03-04T06:18:18;84.53;;;25.23;;
4112;SDS011;2070;51.042;7.056;2023-03-04T06:20:43;95.83;;;25.93;;
4112;SDS011;2070;51.042;7.056;2023-03-04T06:23:09;67.77;;;24.27;;
4112;SDS011;2070;51.042;7.056;2023-03-04T06:25:34;63.00;;;21.40;;
4112;SDS011;2070;51.042;7.056;2023-03-04T06:27:59;63.70;;;26.10;;
4112;SDS011;2070;51.042;7.056;2023-03-04T06:30:24;71.40;;;24.90;;
4112;SDS011;2070;51.042;7.056;2023-03-04T06:32:50;74.57;;;26.83;;
4112;SDS011;2070;51.042;7.056;2023-03-04T06:35:15;66.30;;;23.77;;
4112;SDS011;2070;51.042;7.056;2023-03-04T06:37:41;65.97;;;24.70;;
4112;SDS011;2070;51.042;7.056;2023-03-04T06:40:06;75.17;;;24.53;;
4112;SDS011;2070;51.042;7.056;2023-03-04T06:42:33;69.70;;;23.37;;
4112;SDS011;2070;51.042;7.056;2023-03-04T06:44:58;106.53;;;25.07;;
4112;SDS011;2070;51.042;7.056;2023-03-04T06:47:23;86.93;;;25.03;;
4112;SDS011;2070;51.042;7.056;2023-03-04T06:49:48;75.50;;;23.53;;
4112;SDS011;2070;51.042;7.056;2023-03-04T06:52:14;70.80;;;24.90;;
4112;SDS011;2070;51.042;7.056;2023-03-04T06:54:39;81.27;;;23.43;;
4112;SDS011;2070;51.042;7.056;2023-03-04T06:57:04;76.90;;;24.40;;
4112;SDS011;2070;51.042;7.056;2023-03-04T06:59:30;70.03;;;22.83;;
4112;SDS011;2070;51.042;7.056;2023-03-04T07:01:55;84.17;;;24.70;;
4112;SDS011;2070;51.042;7.056;2023-03-04T07:04:20;73.53;;;24.50;;
4112;SDS011;2070;51.042;7.056;2023-03-04T07:06:47;83.93;;;24.33;;
4112;SDS011;2070;51.042;7.056;2023-03-04T07:09:12;67.33;;;23.40;;
4112;SDS011;2070;51.042;7.056;2023-03-04T07:11:37;69.27;;;21.37;;
4112;SDS011;2070;51.042;7.056;2023-03-04T07:14:03;62.80;;;21.37;;
4112;SDS011;2070;51.042;7.056;2023-03-04T07:16:28;81.43;;;22.80;;
4112;SDS011;2070;51.042;7.056;2023-03-04T07:18:53;66.40;;;20.40;;
4112;SDS011;2070;51.042;7.056;2023-03-04T07:21:18;59.07;;;18.03;;
4112;SDS011;2070;51.042;7.056;2023-03-04T07:23:44;50.07;;;19.30;;
4112;SDS011;2070;51.042;7.056;2023-03-04T07:26:09;62.37;;;18.83;;
4112;SDS011;2070;51.042;7.056;2023-03-04T07:28:34;49.40;;;16.80;;
4112;SDS011;2070;51.042;7.056;2023-03-04T07:33:33;66.00;;;17.10;;
4112;SDS011;2070;51.042;7.056;2023-03-04T07:35:59;55.00;;;15.10;;
4112;SDS011;2070;51.042;7.056;2023-03-04T07:38:24;52.43;;;16.70;;
4112;SDS011;2070;51.042;7.056;2023-03-04T07:40:56;51.90;;;14.40;;
4112;SDS011;2070;51.042;7.056;2023-03-04T07:43:21;49.27;;;15.33;;
4112;SDS011;2070;51.042;7.056;2023-03-04T07:45:47;47.50;;;15.07;;
4112;SDS011;2070;51.042;7.056;2023-03-04T07:48:12;48.90;;;16.70;;
4112;SDS011;2070;51.042;7.056;2023-03-04T07:50:37;34.47;;;13.37;;
4112;SDS011;2070;51.042;7.056;2023-03-04T07:53:02;29.50;;;10.73;;
4112;SDS011;2070;51.042;7.056;2023-03-04T07:55:27;32.67;;;13.00;;
4112;SDS011;2070;51.042;7.056;2023-03-04T07:57:54;54.20;;;15.00;;
4112;SDS011;2070;51.042;7.056;2023-03-04T08:00:19;55.47;;;14.43;;
4112;SDS011;2070;51.042;7.056;2023-03-04T08:02:45;49.30;;;13.23;;
4112;SDS011;2070;51.042;7.056;2023-03-04T08:05:10;26.83;;;10.30;;
4112;SDS011;2070;51.042;7.056;2023-03-04T08:07:35;46.20;;;12.77;;
4112;SDS011;2070;51.042;7.056;2023-03-04T08:10:00;20.17;;;10.60;;
4112;SDS011;2070;51.042;7.056;2023-03-04T08:12:26;25.50;;;8.67;;
4112;SDS011;2070;51.042;7.056;2023-03-04T08:14:52;35.43;;;9.37;;
4112;SDS011;2070;51.042;7.056;2023-03-04T08:17:17;23.73;;;9.40;;
4112;SDS011;2070;51.042;7.056;2023-03-04T08:19:42;30.90;;;9.47;;
4112;SDS011;2070;51.042;7.056;2023-03-04T08:22:08;28.80;;;8.43;;
4112;SDS011;2070;51.042;7.056;2023-03-04T08:24:33;23.13;;;8.37;;
4112;SDS011;2070;51.042;7.056;2023-03-04T08:26:58;31.13;;;8.30;;
4112;SDS011;2070;51.042;7.056;2023-03-04T08:29:23;29.50;;;7.90;;
4112;SDS011;2070;51.042;7.056;2023-03-04T08:31:49;15.60;;;5.80;;
4112;SDS011;2070;51.042;7.056;2023-03-04T08:34:15;19.60;;;5.53;;
4112;SDS011;2070;51.042;7.056;2023-03-04T08:36:40;17.90;;;5.37;;
4112;SDS011;2070;51.042;7.056;2023-03-04T08:39:06;16.30;;;7.07;;
4112;SDS011;2070;51.042;7.056;2023-03-04T08:41:32;17.17;;;5.20;;
4112;SDS011;2070;51.042;7.056;2023-03-04T08:43:58;16.00;;;5.10;;
4112;SDS011;2070;51.042;7.056;2023-03-04T08:46:23;13.40;;;4.90;;
4112;SDS011;2070;51.042;7.056;2023-03-04T08:48:48;18.13;;;5.20;;
4112;SDS011;2070;51.042;7.056;2023-03-04T08:51:14;16.23;;;4.97;;
4112;SDS011;2070;51.042;7.056;2023-03-04T08:53:40;20.27;;;4.67;;
4112;SDS011;2070;51.042;7.056;2023-03-04T08:56:05;13.73;;;4.80;;
4112;SDS011;2070;51.042;7.056;2023-03-04T08:58:30;16.63;;;3.87;;
4112;SDS011;2070;51.042;7.056;2023-03-04T09:00:57;10.80;;;3.67;;
4112;SDS011;2070;51.042;7.056;2023-03-04T09:03:22;7.70;;;5.67;;
4112;SDS011;2070;51.042;7.056;2023-03-04T09:05:47;16.37;;;3.83;;
4112;SDS011;2070;51.042;7.056;2023-03-04T09:08:13;11.70;;;3.83;;
4112;SDS011;2070;51.042;7.056;2023-03-04T09:10:38;11.40;;;3.63;;
4112;SDS011;2070;51.042;7.056;2023-03-04T09:13:04;18.40;;;3.77;;
4112;SDS011;2070;51.042;7.056;2023-03-04T09:15:30;11.67;;;4.10;;
4112;SDS011;2070;51.042;7.056;2023-03-04T09:17:55;11.67;;;4.30;;
4112;SDS011;2070;51.042;7.056;2023-03-04T09:20:20;7.83;;;4.20;;
4112;SDS011;2070;51.042;7.056;2023-03-04T09:22:47;17.43;;;5.90;;
4112;SDS011;2070;51.042;7.056;2023-03-04T09:25:12;14.53;;;5.90;;
4112;SDS011;2070;51.042;7.056;2023-03-04T09:27:38;24.90;;;6.07;;
4112;SDS011;2070;51.042;7.056;2023-03-04T09:30:04;19.37;;;5.70;;
4112;SDS011;2070;51.042;7.056;2023-03-04T09:32:29;22.83;;;5.60;;
4112;SDS011;2070;51.042;7.056;2023-03-04T09:34:54;21.03;;;5.73;;
4112;SDS011;2070;51.042;7.056;2023-03-04T09:37:19;11.40;;;5.97;;
4112;SDS011;2070;51.042;7.056;2023-03-04T09:39:44;28.67;;;7.67;;
4112;SDS011;2070;51.042;7.056;2023-03-04T09:42:11;13.13;;;5.10;;
4112;SDS011;2070;51.042;7.056;2023-03-04T09:44:42;8.70;;;4.50;;
4112;SDS011;2070;51.042;7.056;2023-03-04T09:47:14;7.10;;;4.00;;
4112;SDS011;2070;51.042;7.056;2023-03-04T09:49:41;15.67;;;5.93;;
4112;SDS011;2070;51.042;7.056;2023-03-04T09:57:15;11.80;;;4.57;;
4112;SDS011;2070;51.042;7.056;2023-03-04T10:00:10;9.97;;;5.00;;
4112;SDS011;2070;51.042;7.056;2023-03-04T10:03:17;10.93;;;4.40;;
4112;SDS011;2070;51.042;7.056;2023-03-04T10:05:20;12.33;;;5.37;;
4112;SDS011;2070;51.042;7.056;2023-03-04T10:07:49;10.63;;;4.47;;
4112;SDS011;2070;51.042;7.056;2023-03-04T10:10:21;17.60;;;7.37;;
4112;SDS011;2070;51.042;7.056;2023-03-04T10:12:48;15.83;;;7.10;;
4112;SDS011;2070;51.042;7.056;2023-03-04T10:17:40;19.10;;;8.60;;
4112;SDS011;2070;51.042;7.056;2023-03-04T10:20:18;23.63;;;10.50;;
4112;SDS011;2070;51.042;7.056;2023-03-04T10:22:44;21.97;;;9.80;;
4112;SDS011;2070;51.042;7.056;2023-03-04T10:25:14;21.73;;;8.73;;
4112;SDS011;2070;51.042;7.056;2023-03-04T10:27:41;13.57;;;6.47;;
4112;SDS011;2070;51.042;7.056;2023-03-04T10:30:11;16.73;;;5.80;;
4112;SDS011;2070;51.042;7.056;2023-03-04T10:32:44;21.00;;;5.20;;
4112;SDS011;2070;51.042;7.056;2023-03-04T10:35:10;8.73;;;4.50;;
4112;SDS011;2070;51.042;7.056;2023-03-04T10:37:42;9.03;;;3.53;;
4112;SDS011;2070;51.042;7.056;2023-03-04T10:40:16;3.17;;;2.77;;
4112;SDS011;2070;51.042;7.056;2023-03-04T10:42:42;8.77;;;3.50;;
4112;SDS011;2070;51.042;7.056;2023-03-04T10:45:11;7.37;;;2.30;;
4112;SDS011;2070;51.042;7.056;2023-03-04T10:47:43;5.80;;;2.60;;
4112;SDS011;2070;51.042;7.056;2023-03-04T10:50:20;7.10;;;3.60;;
4112;SDS011;2070;51.042;7.056;2023-03-04T10:52:46;14.40;;;2.67;;
4112;SDS011;2070;51.042;7.056;2023-03-04T10:55:18;5.17;;;3.00;;
4112;SDS011;2070;51.042;7.056;2023-03-04T10:57:43;12.43;;;3.87;;
4112;SDS011;2070;51.042;7.056;2023-03-04T11:02:52;18.73;;;4.93;;
4112;SDS011;2070;51.042;7.056;2023-03-04T11:05:37;8.30;;;2.97;;
4112;SDS011;2070;51.042;7.056;2023-03-04T11:08:02;8.93;;;2.83;;
4112;SDS011;2070;51.042;7.056;2023-03-04T11:13:23;5.73;;;2.40;;
4112;SDS011;2070;51.042;7.056;2023-03-04T11:15:49;7.17;;;2.57;;
4112;SDS011;2070;51.042;7.056;2023-03-04T11:18:15;12.53;;;2.97;;
4112;SDS011;2070;51.042;7.056;2023-03-04T11:20:41;5.80;;;2.43;;
4112;SDS011;2070;51.042;7.056;2023-03-04T11:25:43;7.03;;;1.97;;
4112;SDS011;2070;51.042;7.056;2023-03-04T11:28:13;2.93;;;1.63;;
4112;SDS011;2070;51.042;7.056;2023-03-04T11:30:43;3.57;;;2.40;;
4112;SDS011;2070;51.042;7.056;2023-03-04T11:33:14;8.00;;;2.37;;
4112;SDS011;2070;51.042;7.056;2023-03-04T11:35:44;20.70;;;3.50;;
4112;SDS011;2070;51.042;7.056;2023-03-04T11:38:19;4.60;;;2.70;;
4112;SDS011;2070;51.042;7.056;2023-03-04T11:40:51;6.73;;;4.13;;
4112;SDS011;2070;51.042;7.056;2023-03-04T11:43:19;7.00;;;4.03;;
4112;SDS011;2070;51.042;7.056;2023-03-04T11:48:31;12.10;;;4.80;;
4112;SDS011;2070;51.042;7.056;2023-03-04T11:51:06;7.10;;;3.77;;
4112;SDS011;2070;51.042;7.056;2023-03-04T11:53:39;12.67;;;5.03;;
4112;SDS011;2070;51.042;7.056;2023-03-04T11:58:50;2.57;;;2.37;;
4112;SDS011;2070;51.042;7.056;2023-03-04T12:01:32;7.43;;;2.47;;
4112;SDS011;2070;51.042;7.056;2023-03-04T12:11:41;2.93;;;2.40;;
4112;SDS011;2070;51.042;7.056;2023-03-04T12:16:47;1.90;;;1.53;;
4112;SDS011;2070;51.042;7.056;2023-03-04T12:19:18;3.00;;;1.27;;
4112;SDS011;2070;51.042;7.056;2023-03-04T12:22:07;3.23;;;1.10;;
4112;SDS011;2070;51.042;7.056;2023-03-04T12:27:23;1.30;;;1.07;;
4112;SDS011;2070;51.042;7.056;2023-03-04T12:35:13;7.73;;;1.07;;
4112;SDS011;2070;51.042;7.056;2023-03-04T12:48:31;3.53;;;1.00;;
4112;SDS011;2070;51.042;7.056;2023-03-04T12:53:57;9.23;;;1.10;;
4112;SDS011;2070;51.042;7.056;2023-03-04T12:56:30;4.40;;;1.97;;
4112;SDS011;2070;51.042;7.056;2023-03-04T12:58:56;6.50;;;1.40;;
4112;SDS011;2070;51.042;7.056;2023-03-04T13:03:55;4.70;;;2.93;;
4112;SDS011;2070;51.042;7.056;2023-03-04T13:08:57;0.90;;;0.60;;
4112;SDS011;2070;51.042;7.056;2023-03-04T13:14:21;5.63;;;2.50;;
4112;SDS011;2070;51.042;7.056;2023-03-04T13:16:53;11.70;;;1.00;;
4112;SDS011;2070;51.042;7.056;2023-03-04T13:22:02;9.47;;;2.47;;
4112;SDS011;2070;51.042;7.056;2023-03-04T13:24:44;6.63;;;1.10;;
4112;SDS011;2070;51.042;7.056;2023-03-04T13:29:54;1.37;;;1.00;;
4112;SDS011;2070;51.042;7.056;2023-03-04T13:32:35;1.53;;;1.43;;
4112;SDS011;2070;51.042;7.056;2023-03-04T13:35:01;2.33;;;1.77;;
4112;SDS011;2070;51.042;7.056;2023-03-04T13:37:28;8.13;;;1.63;;
4112;SDS011;2070;51.042;7.056;2023-03-04T13:42:41;4.20;;;1.10;;
4112;SDS011;2070;51.042;7.056;2023-03-04T13:47:50;1.30;;;0.93;;
4112;SDS011;2070;51.042;7.056;2023-03-04T13:50:49;3.67;;;1.37;;
4112;SDS011;2070;51.042;7.056;2023-03-04T13:58:35;1.67;;;1.43;;
4112;SDS011;2070;51.042;7.056;2023-03-04T14:01:01;1.87;;;1.30;;
4112;SDS011;2070;51.042;7.056;2023-03-04T14:03:28;2.90;;;1.17;;
4112;SDS011;2070;51.042;7.056;2023-03-04T14:08:38;1.63;;;1.33;;
4112;SDS011;2070;51.042;7.056;2023-03-04T14:11:03;7.03;;;1.33;;
4112;SDS011;2070;51.042;7.056;2023-03-04T14:13:28;2.20;;;1.13;;
4112;SDS011;2070;51.042;7.056;2023-03-04T14:15:57;0.90;;;0.70;;
4112;SDS011;2070;51.042;7.056;2023-03-04T14:18:22;12.90;;;2.40;;
4112;SDS011;2070;51.042;7.056;2023-03-04T14:20:49;7.47;;;2.10;;
4112;SDS011;2070;51.042;7.056;2023-03-04T14:23:22;4.50;;;1.90;;
4112;SDS011;2070;51.042;7.056;2023-03-04T14:25:47;5.53;;;1.97;;
4112;SDS011;2070;51.042;7.056;2023-03-04T14:28:14;2.60;;;1.47;;
4112;SDS011;2070;51.042;7.056;2023-03-04T14:30:40;3.30;;;1.77;;
4112;SDS011;2070;51.042;7.056;2023-03-04T14:33:07;3.83;;;1.80;;
4112;SDS011;2070;51.042;7.056;2023-03-04T14:35:32;8.03;;;2.07;;
4112;SDS011;2070;51.042;7.056;2023-03-04T14:38:02;3.93;;;1.13;;
4112;SDS011;2070;51.042;7.056;2023-03-04T14:40:33;2.73;;;1.00;;
4112;SDS011;2070;51.042;7.056;2023-03-04T14:43:33;1.90;;;1.00;;
4112;SDS011;2070;51.042;7.056;2023-03-04T14:45:52;4.17;;;1.60;;
4112;SDS011;2070;51.042;7.056;2023-03-04T14:48:23;6.40;;;2.07;;
4112;SDS011;2070;51.042;7.056;2023-03-04T14:50:50;2.33;;;1.33;;
4112;SDS011;2070;51.042;7.056;2023-03-04T14:53:17;1.97;;;1.63;;
4112;SDS011;2070;51.042;7.056;2023-03-04T14:58:24;10.23;;;2.03;;
4112;SDS011;2070;51.042;7.056;2023-03-04T15:01:01;12.43;;;1.27;;
4112;SDS011;2070;51.042;7.056;2023-03-04T15:03:28;7.83;;;1.20;;
4112;SDS011;2070;51.042;7.056;2023-03-04T15:05:53;4.40;;;1.37;;
4112;SDS011;2070;51.042;7.056;2023-03-04T15:10:51;1.77;;;1.20;;
4112;SDS011;2070;51.042;7.056;2023-03-04T15:13:17;2.20;;;1.17;;
4112;SDS011;2070;51.042;7.056;2023-03-04T15:16:00;2.27;;;1.13;;
4112;SDS011;2070;51.042;7.056;2023-03-04T15:18:26;1.53;;;1.17;;
4112;SDS011;2070;51.042;7.056;2023-03-04T15:20:52;3.90;;;2.10;;
4112;SDS011;2070;51.042;7.056;2023-03-04T15:23:18;2.60;;;1.90;;
4112;SDS011;2070;51.042;7.056;2023-03-04T15:25:43;1.07;;;0.97;;
4112;SDS011;2070;51.042;7.056;2023-03-04T15:28:14;2.50;;;1.10;;
4112;SDS011;2070;51.042;7.056;2023-03-04T15:30:40;9.27;;;1.50;;
4112;SDS011;2070;51.042;7.056;2023-03-04T15:33:08;3.63;;;1.33;;
4112;SDS011;2070;51.042;7.056;2023-03-04T15:35:34;1.73;;;1.10;;
4112;SDS011;2070;51.042;7.056;2023-03-04T15:37:59;3.90;;;1.63;;
4112;SDS011;2070;51.042;7.056;2023-03-04T15:40:29;3.60;;;1.40;;
4112;SDS011;2070;51.042;7.056;2023-03-04T15:42:55;3.10;;;2.00;;
4112;SDS011;2070;51.042;7.056;2023-03-04T15:45:22;5.53;;;2.17;;
4112;SDS011;2070;51.042;7.056;2023-03-04T15:47:48;2.80;;;1.80;;
4112;SDS011;2070;51.042;7.056;2023-03-04T15:50:14;1.80;;;1.50;;
4112;SDS011;2070;51.042;7.056;2023-03-04T15:52:39;4.60;;;2.20;;
4112;SDS011;2070;51.042;7.056;2023-03-04T15:55:05;2.20;;;2.00;;
4112;SDS011;2070;51.042;7.056;2023-03-04T15:57:31;9.77;;;1.70;;
4112;SDS011;2070;51.042;7.056;2023-03-04T15:59:56;8.83;;;2.83;;
4112;SDS011;2070;51.042;7.056;2023-03-04T16:02:22;4.13;;;1.87;;
4112;SDS011;2070;51.042;7.056;2023-03-04T16:04:48;5.17;;;2.00;;
4112;SDS011;2070;51.042;7.056;2023-03-04T16:07:17;5.07;;;2.53;;
4112;SDS011;2070;51.042;7.056;2023-03-04T16:09:42;13.50;;;2.87;;
4112;SDS011;2070;51.042;7.056;2023-03-04T16:12:09;3.07;;;2.13;;
4112;SDS011;2070;51.042;7.056;2023-03-04T16:14:34;2.33;;;1.73;;
4112;SDS011;2070;51.042;7.056;2023-03-04T16:17:00;5.47;;;2.07;;
4112;SDS011;2070;51.042;7.056;2023-03-04T16:19:25;2.90;;;1.97;;
4112;SDS011;2070;51.042;7.056;2023-03-04T16:21:50;4.20;;;2.47;;
4112;SDS011;2070;51.042;7.056;2023-03-04T16:24:16;2.97;;;2.13;;